Terminal Aerodrome Forecast
Issued by NWS

Home | Current Version | Previous Version | Text Only | Print | Product List | Glossary On
Versions: 1 2 3 4 5 6 7 8 9 10 11 12 13 14 15 16 17 18 19 20 21 22 23 24
000
FTUS45 KGJT 252341
TAFVEL
TAF
KVEL 252341Z 2600/2624 29025G32KT P6SM SCT250
     FM260300 04004KT P6SM BKN200
     FM260700 34006KT P6SM BKN200
     FM261400 VRB03KT P6SM SCT140
     FM261800 22007KT P6SM SCT150
     FM262100 26016G26KT P6SM BKN080=

USA.gov is the U.S. government's official web portal to all federal, state and local government web resources and services.